sensor_id;sensor_type;location;lat;lon;timestamp;P1;durP1;ratioP1;P2;durP2;ratioP2
10641;SDS011;5369;49.586;8.646;2024-03-25T00:01:22;3.43;;;3.03;;
10641;SDS011;5369;49.586;8.646;2024-03-25T00:03:48;6.37;;;3.53;;
10641;SDS011;5369;49.586;8.646;2024-03-25T00:06:14;5.33;;;3.40;;
10641;SDS011;5369;49.586;8.646;2024-03-25T00:08:40;4.17;;;3.23;;
10641;SDS011;5369;49.586;8.646;2024-03-25T00:11:07;5.27;;;3.40;;
10641;SDS011;5369;49.586;8.646;2024-03-25T00:13:33;4.57;;;3.17;;
10641;SDS011;5369;49.586;8.646;2024-03-25T00:15:59;5.27;;;3.50;;
10641;SDS011;5369;49.586;8.646;2024-03-25T00:18:25;4.43;;;3.20;;
10641;SDS011;5369;49.586;8.646;2024-03-25T00:20:52;5.93;;;3.57;;
10641;SDS011;5369;49.586;8.646;2024-03-25T00:23:18;5.53;;;3.20;;
10641;SDS011;5369;49.586;8.646;2024-03-25T00:25:44;3.90;;;3.30;;
10641;SDS011;5369;49.586;8.646;2024-03-25T00:28:10;6.57;;;3.83;;
10641;SDS011;5369;49.586;8.646;2024-03-25T00:30:36;7.37;;;3.60;;
10641;SDS011;5369;49.586;8.646;2024-03-25T00:33:02;5.80;;;3.60;;
10641;SDS011;5369;49.586;8.646;2024-03-25T00:35:29;6.80;;;3.73;;
10641;SDS011;5369;49.586;8.646;2024-03-25T00:37:55;7.17;;;3.83;;
10641;SDS011;5369;49.586;8.646;2024-03-25T00:40:21;5.10;;;3.67;;
10641;SDS011;5369;49.586;8.646;2024-03-25T00:42:47;7.60;;;4.10;;
10641;SDS011;5369;49.586;8.646;2024-03-25T00:45:13;5.17;;;3.60;;
10641;SDS011;5369;49.586;8.646;2024-03-25T00:47:39;4.87;;;3.43;;
10641;SDS011;5369;49.586;8.646;2024-03-25T00:50:06;5.60;;;3.50;;
10641;SDS011;5369;49.586;8.646;2024-03-25T00:52:32;5.40;;;3.63;;
10641;SDS011;5369;49.586;8.646;2024-03-25T00:54:58;6.50;;;3.80;;
10641;SDS011;5369;49.586;8.646;2024-03-25T00:57:25;5.27;;;3.50;;
10641;SDS011;5369;49.586;8.646;2024-03-25T00:59:51;5.53;;;3.57;;
10641;SDS011;5369;49.586;8.646;2024-03-25T01:02:17;7.13;;;3.87;;
10641;SDS011;5369;49.586;8.646;2024-03-25T01:04:43;5.37;;;3.43;;
10641;SDS011;5369;49.586;8.646;2024-03-25T01:07:09;6.13;;;3.70;;
10641;SDS011;5369;49.586;8.646;2024-03-25T01:09:35;5.53;;;3.40;;
10641;SDS011;5369;49.586;8.646;2024-03-25T01:12:01;5.00;;;3.60;;
10641;SDS011;5369;49.586;8.646;2024-03-25T01:14:28;5.40;;;3.60;;
10641;SDS011;5369;49.586;8.646;2024-03-25T01:16:54;4.37;;;3.47;;
10641;SDS011;5369;49.586;8.646;2024-03-25T01:19:21;4.80;;;3.73;;
10641;SDS011;5369;49.586;8.646;2024-03-25T01:21:47;5.77;;;4.07;;
10641;SDS011;5369;49.586;8.646;2024-03-25T01:24:14;5.53;;;3.70;;
10641;SDS011;5369;49.586;8.646;2024-03-25T01:26:40;5.50;;;3.87;;
10641;SDS011;5369;49.586;8.646;2024-03-25T01:29:06;10.53;;;6.10;;
10641;SDS011;5369;49.586;8.646;2024-03-25T01:31:33;5.40;;;4.10;;
10641;SDS011;5369;49.586;8.646;2024-03-25T01:33:59;6.93;;;4.10;;
10641;SDS011;5369;49.586;8.646;2024-03-25T01:36:26;17.17;;;9.13;;
10641;SDS011;5369;49.586;8.646;2024-03-25T01:38:52;9.17;;;5.83;;
10641;SDS011;5369;49.586;8.646;2024-03-25T01:41:20;8.30;;;5.07;;
10641;SDS011;5369;49.586;8.646;2024-03-25T01:43:48;9.60;;;5.37;;
10641;SDS011;5369;49.586;8.646;2024-03-25T01:46:15;8.17;;;5.20;;
10641;SDS011;5369;49.586;8.646;2024-03-25T01:48:41;7.53;;;4.60;;
10641;SDS011;5369;49.586;8.646;2024-03-25T01:51:08;5.53;;;4.20;;
10641;SDS011;5369;49.586;8.646;2024-03-25T01:53:34;12.03;;;7.07;;
10641;SDS011;5369;49.586;8.646;2024-03-25T01:56:00;12.17;;;7.43;;
10641;SDS011;5369;49.586;8.646;2024-03-25T01:58:27;15.27;;;8.50;;
10641;SDS011;5369;49.586;8.646;2024-03-25T02:00:54;16.10;;;8.17;;
10641;SDS011;5369;49.586;8.646;2024-03-25T02:03:22;12.03;;;6.57;;
10641;SDS011;5369;49.586;8.646;2024-03-25T02:05:52;10.07;;;5.57;;
10641;SDS011;5369;49.586;8.646;2024-03-25T02:08:20;21.80;;;11.13;;
10641;SDS011;5369;49.586;8.646;2024-03-25T02:10:46;15.90;;;9.47;;
10641;SDS011;5369;49.586;8.646;2024-03-25T02:13:14;8.83;;;5.40;;
10641;SDS011;5369;49.586;8.646;2024-03-25T02:15:40;8.50;;;5.53;;
10641;SDS011;5369;49.586;8.646;2024-03-25T02:18:07;7.93;;;4.87;;
10641;SDS011;5369;49.586;8.646;2024-03-25T02:20:33;8.03;;;4.87;;
10641;SDS011;5369;49.586;8.646;2024-03-25T02:22:59;11.40;;;5.80;;
10641;SDS011;5369;49.586;8.646;2024-03-25T02:25:25;12.80;;;6.93;;
10641;SDS011;5369;49.586;8.646;2024-03-25T02:27:51;10.90;;;5.70;;
10641;SDS011;5369;49.586;8.646;2024-03-25T02:30:18;11.00;;;6.30;;
10641;SDS011;5369;49.586;8.646;2024-03-25T02:32:44;7.13;;;4.63;;
10641;SDS011;5369;49.586;8.646;2024-03-25T02:35:12;13.60;;;6.07;;
10641;SDS011;5369;49.586;8.646;2024-03-25T02:37:39;7.80;;;4.73;;
10641;SDS011;5369;49.586;8.646;2024-03-25T02:40:06;8.57;;;4.47;;
10641;SDS011;5369;49.586;8.646;2024-03-25T02:42:36;6.87;;;4.50;;
10641;SDS011;5369;49.586;8.646;2024-03-25T02:45:05;8.57;;;4.27;;
10641;SDS011;5369;49.586;8.646;2024-03-25T02:47:31;7.13;;;4.53;;
10641;SDS011;5369;49.586;8.646;2024-03-25T02:49:57;6.13;;;4.03;;
10641;SDS011;5369;49.586;8.646;2024-03-25T02:52:23;8.93;;;4.70;;
10641;SDS011;5369;49.586;8.646;2024-03-25T02:54:50;8.03;;;4.43;;
10641;SDS011;5369;49.586;8.646;2024-03-25T02:57:16;9.03;;;4.77;;
10641;SDS011;5369;49.586;8.646;2024-03-25T02:59:42;7.43;;;4.67;;
10641;SDS011;5369;49.586;8.646;2024-03-25T03:02:09;8.70;;;4.57;;
10641;SDS011;5369;49.586;8.646;2024-03-25T03:04:35;7.00;;;4.30;;
10641;SDS011;5369;49.586;8.646;2024-03-25T03:07:01;10.43;;;4.73;;
10641;SDS011;5369;49.586;8.646;2024-03-25T03:09:27;9.67;;;4.83;;
10641;SDS011;5369;49.586;8.646;2024-03-25T03:11:53;8.30;;;4.50;;
10641;SDS011;5369;49.586;8.646;2024-03-25T03:14:20;7.50;;;4.93;;
10641;SDS011;5369;49.586;8.646;2024-03-25T03:16:46;6.80;;;4.33;;
10641;SDS011;5369;49.586;8.646;2024-03-25T03:19:12;9.97;;;5.30;;
10641;SDS011;5369;49.586;8.646;2024-03-25T03:21:38;7.80;;;4.43;;
10641;SDS011;5369;49.586;8.646;2024-03-25T03:24:05;9.27;;;4.60;;
10641;SDS011;5369;49.586;8.646;2024-03-25T03:26:31;6.53;;;4.43;;
10641;SDS011;5369;49.586;8.646;2024-03-25T03:28:57;7.83;;;5.00;;
10641;SDS011;5369;49.586;8.646;2024-03-25T03:31:23;8.50;;;4.53;;
10641;SDS011;5369;49.586;8.646;2024-03-25T03:33:50;7.57;;;4.30;;
10641;SDS011;5369;49.586;8.646;2024-03-25T03:36:16;8.63;;;4.60;;
10641;SDS011;5369;49.586;8.646;2024-03-25T03:38:43;8.20;;;4.07;;
10641;SDS011;5369;49.586;8.646;2024-03-25T03:41:09;9.43;;;5.33;;
10641;SDS011;5369;49.586;8.646;2024-03-25T03:43:35;15.57;;;6.93;;
10641;SDS011;5369;49.586;8.646;2024-03-25T03:46:01;30.30;;;10.33;;
10641;SDS011;5369;49.586;8.646;2024-03-25T03:48:28;16.00;;;6.40;;
10641;SDS011;5369;49.586;8.646;2024-03-25T03:50:54;17.17;;;7.30;;
10641;SDS011;5369;49.586;8.646;2024-03-25T03:53:20;11.83;;;6.10;;
10641;SDS011;5369;49.586;8.646;2024-03-25T03:55:56;16.00;;;7.37;;
10641;SDS011;5369;49.586;8.646;2024-03-25T03:58:23;13.33;;;6.63;;
10641;SDS011;5369;49.586;8.646;2024-03-25T04:00:49;11.80;;;6.80;;
10641;SDS011;5369;49.586;8.646;2024-03-25T04:03:16;11.10;;;6.27;;
10641;SDS011;5369;49.586;8.646;2024-03-25T04:05:42;10.77;;;6.17;;
10641;SDS011;5369;49.586;8.646;2024-03-25T04:08:08;10.63;;;5.83;;
10641;SDS011;5369;49.586;8.646;2024-03-25T04:10:34;11.47;;;6.33;;
10641;SDS011;5369;49.586;8.646;2024-03-25T04:13:01;12.10;;;6.10;;
10641;SDS011;5369;49.586;8.646;2024-03-25T04:15:27;8.27;;;4.83;;
10641;SDS011;5369;49.586;8.646;2024-03-25T04:17:53;10.17;;;5.60;;
10641;SDS011;5369;49.586;8.646;2024-03-25T04:20:20;9.47;;;5.53;;
10641;SDS011;5369;49.586;8.646;2024-03-25T04:22:46;10.77;;;6.00;;
10641;SDS011;5369;49.586;8.646;2024-03-25T04:25:12;9.47;;;5.87;;
10641;SDS011;5369;49.586;8.646;2024-03-25T04:27:42;11.33;;;6.10;;
10641;SDS011;5369;49.586;8.646;2024-03-25T04:30:09;10.53;;;5.80;;
10641;SDS011;5369;49.586;8.646;2024-03-25T04:32:36;14.37;;;7.33;;
10641;SDS011;5369;49.586;8.646;2024-03-25T04:35:03;14.40;;;7.30;;
10641;SDS011;5369;49.586;8.646;2024-03-25T04:37:32;11.33;;;6.37;;
10641;SDS011;5369;49.586;8.646;2024-03-25T04:39:59;16.60;;;7.57;;
10641;SDS011;5369;49.586;8.646;2024-03-25T04:42:25;9.87;;;6.87;;
10641;SDS011;5369;49.586;8.646;2024-03-25T04:44:51;10.27;;;6.20;;
10641;SDS011;5369;49.586;8.646;2024-03-25T04:47:19;11.83;;;6.60;;
10641;SDS011;5369;49.586;8.646;2024-03-25T04:49:45;12.83;;;6.77;;
10641;SDS011;5369;49.586;8.646;2024-03-25T04:52:11;13.55;;;7.20;;
10641;SDS011;5369;49.586;8.646;2024-03-25T04:54:38;11.90;;;7.43;;
10641;SDS011;5369;49.586;8.646;2024-03-25T04:57:05;10.30;;;6.83;;
10641;SDS011;5369;49.586;8.646;2024-03-25T04:59:32;13.25;;;7.40;;
10641;SDS011;5369;49.586;8.646;2024-03-25T05:01:59;9.67;;;6.03;;
10641;SDS011;5369;49.586;8.646;2024-03-25T05:04:25;12.53;;;6.37;;
10641;SDS011;5369;49.586;8.646;2024-03-25T05:06:51;16.47;;;8.37;;
10641;SDS011;5369;49.586;8.646;2024-03-25T05:09:18;13.67;;;7.87;;
10641;SDS011;5369;49.586;8.646;2024-03-25T05:11:45;12.70;;;6.23;;
10641;SDS011;5369;49.586;8.646;2024-03-25T05:14:11;11.73;;;7.10;;
10641;SDS011;5369;49.586;8.646;2024-03-25T05:16:37;18.80;;;9.73;;
10641;SDS011;5369;49.586;8.646;2024-03-25T05:19:03;13.90;;;7.63;;
10641;SDS011;5369;49.586;8.646;2024-03-25T05:21:32;15.83;;;8.50;;
10641;SDS011;5369;49.586;8.646;2024-03-25T05:23:58;10.63;;;6.97;;
10641;SDS011;5369;49.586;8.646;2024-03-25T05:26:24;13.30;;;7.97;;
10641;SDS011;5369;49.586;8.646;2024-03-25T05:28:54;12.10;;;7.47;;
10641;SDS011;5369;49.586;8.646;2024-03-25T05:31:20;10.90;;;6.90;;
10641;SDS011;5369;49.586;8.646;2024-03-25T05:33:46;11.40;;;7.63;;
10641;SDS011;5369;49.586;8.646;2024-03-25T05:36:13;14.47;;;8.17;;
10641;SDS011;5369;49.586;8.646;2024-03-25T05:38:39;9.33;;;6.53;;
10641;SDS011;5369;49.586;8.646;2024-03-25T05:41:09;8.27;;;5.70;;
10641;SDS011;5369;49.586;8.646;2024-03-25T05:43:35;8.90;;;5.63;;
10641;SDS011;5369;49.586;8.646;2024-03-25T05:46:02;9.70;;;5.77;;
10641;SDS011;5369;49.586;8.646;2024-03-25T05:48:29;8.97;;;6.63;;
10641;SDS011;5369;49.586;8.646;2024-03-25T05:51:05;10.60;;;6.03;;
10641;SDS011;5369;49.586;8.646;2024-03-25T05:53:35;10.70;;;6.77;;
10641;SDS011;5369;49.586;8.646;2024-03-25T05:56:06;10.33;;;6.60;;
10641;SDS011;5369;49.586;8.646;2024-03-25T05:58:38;8.83;;;5.90;;
10641;SDS011;5369;49.586;8.646;2024-03-25T06:01:05;12.20;;;6.90;;
10641;SDS011;5369;49.586;8.646;2024-03-25T06:03:36;14.40;;;7.50;;
10641;SDS011;5369;49.586;8.646;2024-03-25T06:06:34;12.83;;;8.30;;
10641;SDS011;5369;49.586;8.646;2024-03-25T06:09:00;10.13;;;6.83;;
10641;SDS011;5369;49.586;8.646;2024-03-25T06:11:29;12.63;;;7.20;;
10641;SDS011;5369;49.586;8.646;2024-03-25T06:14:00;13.40;;;7.30;;
10641;SDS011;5369;49.586;8.646;2024-03-25T06:16:29;13.50;;;7.30;;
10641;SDS011;5369;49.586;8.646;2024-03-25T06:18:56;10.43;;;6.90;;
10641;SDS011;5369;49.586;8.646;2024-03-25T06:21:25;11.07;;;6.80;;
10641;SDS011;5369;49.586;8.646;2024-03-25T06:23:52;10.80;;;7.37;;
10641;SDS011;5369;49.586;8.646;2024-03-25T06:26:22;12.27;;;7.40;;
10641;SDS011;5369;49.586;8.646;2024-03-25T06:28:48;10.00;;;6.40;;
10641;SDS011;5369;49.586;8.646;2024-03-25T06:31:16;8.33;;;5.60;;
10641;SDS011;5369;49.586;8.646;2024-03-25T06:34:01;11.37;;;6.90;;
10641;SDS011;5369;49.586;8.646;2024-03-25T06:36:41;11.87;;;6.30;;
10641;SDS011;5369;49.586;8.646;2024-03-25T06:39:08;9.10;;;5.60;;
10641;SDS011;5369;49.586;8.646;2024-03-25T06:41:35;7.20;;;5.13;;
10641;SDS011;5369;49.586;8.646;2024-03-25T06:44:02;9.53;;;5.70;;
10641;SDS011;5369;49.586;8.646;2024-03-25T06:46:32;9.07;;;5.40;;
10641;SDS011;5369;49.586;8.646;2024-03-25T06:49:04;9.23;;;5.57;;
10641;SDS011;5369;49.586;8.646;2024-03-25T06:51:30;9.83;;;5.87;;
10641;SDS011;5369;49.586;8.646;2024-03-25T06:54:00;11.73;;;6.20;;
10641;SDS011;5369;49.586;8.646;2024-03-25T06:56:29;11.07;;;6.83;;
10641;SDS011;5369;49.586;8.646;2024-03-25T06:58:55;10.73;;;6.93;;
10641;SDS011;5369;49.586;8.646;2024-03-25T07:01:22;10.30;;;6.83;;
10641;SDS011;5369;49.586;8.646;2024-03-25T07:03:49;11.60;;;6.63;;
10641;SDS011;5369;49.586;8.646;2024-03-25T07:06:17;11.13;;;7.47;;
10641;SDS011;5369;49.586;8.646;2024-03-25T07:08:43;9.70;;;7.00;;
10641;SDS011;5369;49.586;8.646;2024-03-25T07:11:10;9.33;;;7.07;;
10641;SDS011;5369;49.586;8.646;2024-03-25T07:13:37;11.97;;;7.20;;
10641;SDS011;5369;49.586;8.646;2024-03-25T07:16:03;11.67;;;7.10;;
10641;SDS011;5369;49.586;8.646;2024-03-25T07:18:52;12.70;;;7.50;;
10641;SDS011;5369;49.586;8.646;2024-03-25T07:21:47;10.63;;;7.10;;
10641;SDS011;5369;49.586;8.646;2024-03-25T07:24:16;11.60;;;7.57;;
10641;SDS011;5369;49.586;8.646;2024-03-25T07:26:42;9.83;;;6.53;;
10641;SDS011;5369;49.586;8.646;2024-03-25T07:29:09;10.43;;;7.17;;
10641;SDS011;5369;49.586;8.646;2024-03-25T07:31:36;12.87;;;7.83;;
10641;SDS011;5369;49.586;8.646;2024-03-25T07:34:03;9.30;;;6.50;;
10641;SDS011;5369;49.586;8.646;2024-03-25T07:36:29;13.50;;;6.57;;
10641;SDS011;5369;49.586;8.646;2024-03-25T07:39:00;11.57;;;6.57;;
10641;SDS011;5369;49.586;8.646;2024-03-25T07:41:36;9.73;;;6.97;;
10641;SDS011;5369;49.586;8.646;2024-03-25T07:44:05;9.73;;;6.77;;
10641;SDS011;5369;49.586;8.646;2024-03-25T07:46:33;11.90;;;7.40;;
10641;SDS011;5369;49.586;8.646;2024-03-25T07:49:00;10.37;;;6.43;;
10641;SDS011;5369;49.586;8.646;2024-03-25T07:51:26;12.37;;;6.80;;
10641;SDS011;5369;49.586;8.646;2024-03-25T07:54:00;11.07;;;7.00;;
10641;SDS011;5369;49.586;8.646;2024-03-25T07:56:27;12.63;;;7.10;;
10641;SDS011;5369;49.586;8.646;2024-03-25T07:58:54;11.23;;;7.07;;
10641;SDS011;5369;49.586;8.646;2024-03-25T08:01:26;14.30;;;7.63;;
10641;SDS011;5369;49.586;8.646;2024-03-25T08:03:52;10.80;;;6.90;;
10641;SDS011;5369;49.586;8.646;2024-03-25T08:06:32;10.57;;;6.77;;
10641;SDS011;5369;49.586;8.646;2024-03-25T08:09:03;11.13;;;7.03;;
10641;SDS011;5369;49.586;8.646;2024-03-25T08:11:58;12.70;;;7.27;;
10641;SDS011;5369;49.586;8.646;2024-03-25T08:14:29;12.90;;;7.27;;
10641;SDS011;5369;49.586;8.646;2024-03-25T08:16:59;9.37;;;6.33;;
10641;SDS011;5369;49.586;8.646;2024-03-25T08:19:25;10.73;;;7.00;;
10641;SDS011;5369;49.586;8.646;2024-03-25T08:22:13;13.90;;;8.50;;
10641;SDS011;5369;49.586;8.646;2024-03-25T08:24:42;10.00;;;7.23;;
10641;SDS011;5369;49.586;8.646;2024-03-25T08:27:12;8.80;;;6.33;;
10641;SDS011;5369;49.586;8.646;2024-03-25T08:29:41;9.80;;;6.43;;
10641;SDS011;5369;49.586;8.646;2024-03-25T08:32:18;10.87;;;6.77;;
10641;SDS011;5369;49.586;8.646;2024-03-25T08:34:47;11.20;;;6.70;;
10641;SDS011;5369;49.586;8.646;2024-03-25T08:37:18;11.53;;;6.80;;
10641;SDS011;5369;49.586;8.646;2024-03-25T08:39:45;10.03;;;6.73;;
10641;SDS011;5369;49.586;8.646;2024-03-25T08:42:13;10.73;;;6.83;;
10641;SDS011;5369;49.586;8.646;2024-03-25T08:44:44;10.03;;;6.40;;
10641;SDS011;5369;49.586;8.646;2024-03-25T08:47:10;11.27;;;6.77;;
10641;SDS011;5369;49.586;8.646;2024-03-25T08:49:42;12.83;;;6.60;;
10641;SDS011;5369;49.586;8.646;2024-03-25T08:52:08;12.83;;;6.50;;
10641;SDS011;5369;49.586;8.646;2024-03-25T08:54:39;10.00;;;6.70;;
10641;SDS011;5369;49.586;8.646;2024-03-25T08:57:06;11.20;;;6.90;;
10641;SDS011;5369;49.586;8.646;2024-03-25T08:59:32;10.00;;;6.20;;
10641;SDS011;5369;49.586;8.646;2024-03-25T09:02:01;10.27;;;5.90;;
10641;SDS011;5369;49.586;8.646;2024-03-25T09:04:27;11.33;;;5.87;;
10641;SDS011;5369;49.586;8.646;2024-03-25T09:07:02;10.83;;;5.97;;
10641;SDS011;5369;49.586;8.646;2024-03-25T09:09:28;11.23;;;6.23;;
10641;SDS011;5369;49.586;8.646;2024-03-25T09:12:19;7.63;;;5.67;;
10641;SDS011;5369;49.586;8.646;2024-03-25T09:14:52;11.70;;;6.10;;
10641;SDS011;5369;49.586;8.646;2024-03-25T09:17:19;9.73;;;5.93;;
10641;SDS011;5369;49.586;8.646;2024-03-25T09:19:50;9.77;;;5.70;;
10641;SDS011;5369;49.586;8.646;2024-03-25T09:22:23;9.30;;;5.50;;
10641;SDS011;5369;49.586;8.646;2024-03-25T09:24:52;8.73;;;5.90;;
10641;SDS011;5369;49.586;8.646;2024-03-25T09:27:19;7.87;;;5.70;;
10641;SDS011;5369;49.586;8.646;2024-03-25T09:29:45;10.17;;;5.53;;
10641;SDS011;5369;49.586;8.646;2024-03-25T09:32:12;7.97;;;5.43;;
10641;SDS011;5369;49.586;8.646;2024-03-25T09:34:38;10.37;;;6.07;;
10641;SDS011;5369;49.586;8.646;2024-03-25T09:37:04;10.00;;;5.80;;
10641;SDS011;5369;49.586;8.646;2024-03-25T09:39:31;12.87;;;5.60;;
10641;SDS011;5369;49.586;8.646;2024-03-25T09:41:57;12.23;;;5.50;;
10641;SDS011;5369;49.586;8.646;2024-03-25T09:44:24;11.20;;;5.50;;
10641;SDS011;5369;49.586;8.646;2024-03-25T09:46:51;9.30;;;5.03;;
10641;SDS011;5369;49.586;8.646;2024-03-25T09:49:17;8.73;;;4.90;;
10641;SDS011;5369;49.586;8.646;2024-03-25T09:51:43;11.57;;;5.67;;
10641;SDS011;5369;49.586;8.646;2024-03-25T09:54:09;8.10;;;4.70;;
10641;SDS011;5369;49.586;8.646;2024-03-25T09:56:36;7.33;;;4.90;;
10641;SDS011;5369;49.586;8.646;2024-03-25T09:59:03;10.73;;;4.60;;
10641;SDS011;5369;49.586;8.646;2024-03-25T10:01:29;8.60;;;4.30;;
10641;SDS011;5369;49.586;8.646;2024-03-25T10:03:56;5.90;;;4.23;;
10641;SDS011;5369;49.586;8.646;2024-03-25T10:06:22;8.93;;;4.53;;
10641;SDS011;5369;49.586;8.646;2024-03-25T10:08:48;7.60;;;4.30;;
10641;SDS011;5369;49.586;8.646;2024-03-25T10:11:15;8.60;;;4.67;;
10641;SDS011;5369;49.586;8.646;2024-03-25T10:13:41;6.87;;;4.10;;
10641;SDS011;5369;49.586;8.646;2024-03-25T10:16:07;8.87;;;4.80;;
10641;SDS011;5369;49.586;8.646;2024-03-25T10:18:34;7.27;;;4.43;;
10641;SDS011;5369;49.586;8.646;2024-03-25T10:21:00;6.50;;;4.50;;
10641;SDS011;5369;49.586;8.646;2024-03-25T10:23:32;7.93;;;4.40;;
10641;SDS011;5369;49.586;8.646;2024-03-25T10:26:01;7.03;;;4.20;;
10641;SDS011;5369;49.586;8.646;2024-03-25T10:28:27;7.30;;;4.50;;
10641;SDS011;5369;49.586;8.646;2024-03-25T10:30:53;6.60;;;4.33;;
10641;SDS011;5369;49.586;8.646;2024-03-25T10:33:20;8.13;;;4.40;;
10641;SDS011;5369;49.586;8.646;2024-03-25T10:35:46;8.90;;;4.70;;
10641;SDS011;5369;49.586;8.646;2024-03-25T10:38:17;6.70;;;4.27;;
10641;SDS011;5369;49.586;8.646;2024-03-25T10:40:44;8.60;;;4.47;;
10641;SDS011;5369;49.586;8.646;2024-03-25T10:43:11;7.27;;;4.13;;
10641;SDS011;5369;49.586;8.646;2024-03-25T10:45:42;7.70;;;4.47;;
10641;SDS011;5369;49.586;8.646;2024-03-25T10:48:11;8.50;;;4.53;;
10641;SDS011;5369;49.586;8.646;2024-03-25T10:50:40;7.83;;;3.70;;
10641;SDS011;5369;49.586;8.646;2024-03-25T10:53:06;7.20;;;3.77;;
10641;SDS011;5369;49.586;8.646;2024-03-25T10:55:34;9.70;;;4.17;;
10641;SDS011;5369;49.586;8.646;2024-03-25T10:58:00;6.73;;;3.70;;
10641;SDS011;5369;49.586;8.646;2024-03-25T11:00:28;6.87;;;3.87;;
10641;SDS011;5369;49.586;8.646;2024-03-25T11:02:54;7.87;;;4.13;;
10641;SDS011;5369;49.586;8.646;2024-03-25T11:05:21;9.17;;;5.47;;
10641;SDS011;5369;49.586;8.646;2024-03-25T11:07:47;8.47;;;4.73;;
10641;SDS011;5369;49.586;8.646;2024-03-25T11:10:14;6.63;;;4.50;;
10641;SDS011;5369;49.586;8.646;2024-03-25T11:12:41;6.90;;;3.80;;
10641;SDS011;5369;49.586;8.646;2024-03-25T11:15:08;6.37;;;3.57;;
10641;SDS011;5369;49.586;8.646;2024-03-25T11:17:35;6.97;;;3.83;;
10641;SDS011;5369;49.586;8.646;2024-03-25T11:20:15;6.40;;;3.77;;
10641;SDS011;5369;49.586;8.646;2024-03-25T11:22:51;6.00;;;4.20;;
10641;SDS011;5369;49.586;8.646;2024-03-25T11:25:17;6.30;;;4.10;;
10641;SDS011;5369;49.586;8.646;2024-03-25T11:27:44;5.40;;;3.53;;
10641;SDS011;5369;49.586;8.646;2024-03-25T11:30:11;6.30;;;3.97;;
10641;SDS011;5369;49.586;8.646;2024-03-25T11:32:44;5.07;;;3.60;;
10641;SDS011;5369;49.586;8.646;2024-03-25T11:35:10;5.73;;;3.50;;
10641;SDS011;5369;49.586;8.646;2024-03-25T11:37:40;4.93;;;3.23;;
10641;SDS011;5369;49.586;8.646;2024-03-25T11:40:07;6.53;;;3.30;;
10641;SDS011;5369;49.586;8.646;2024-03-25T11:42:34;7.83;;;4.13;;
10641;SDS011;5369;49.586;8.646;2024-03-25T11:45:01;6.03;;;3.47;;
10641;SDS011;5369;49.586;8.646;2024-03-25T11:47:27;6.40;;;3.17;;
10641;SDS011;5369;49.586;8.646;2024-03-25T11:49:54;4.17;;;2.80;;
10641;SDS011;5369;49.586;8.646;2024-03-25T11:52:20;6.10;;;3.47;;
10641;SDS011;5369;49.586;8.646;2024-03-25T11:54:53;4.67;;;3.37;;
10641;SDS011;5369;49.586;8.646;2024-03-25T11:57:20;5.67;;;3.20;;
10641;SDS011;5369;49.586;8.646;2024-03-25T11:59:47;4.97;;;2.60;;
10641;SDS011;5369;49.586;8.646;2024-03-25T12:02:17;3.97;;;2.43;;
10641;SDS011;5369;49.586;8.646;2024-03-25T12:04:44;4.57;;;2.70;;
10641;SDS011;5369;49.586;8.646;2024-03-25T12:07:11;4.70;;;3.00;;
10641;SDS011;5369;49.586;8.646;2024-03-25T12:09:37;5.30;;;2.70;;
10641;SDS011;5369;49.586;8.646;2024-03-25T12:12:22;4.73;;;3.60;;
10641;SDS011;5369;49.586;8.646;2024-03-25T12:14:49;4.17;;;2.80;;
10641;SDS011;5369;49.586;8.646;2024-03-25T12:17:15;5.30;;;2.80;;
10641;SDS011;5369;49.586;8.646;2024-03-25T12:19:44;4.43;;;2.73;;
10641;SDS011;5369;49.586;8.646;2024-03-25T12:22:10;3.67;;;2.57;;
10641;SDS011;5369;49.586;8.646;2024-03-25T12:24:36;3.80;;;2.60;;
10641;SDS011;5369;49.586;8.646;2024-03-25T12:27:04;3.37;;;2.50;;
10641;SDS011;5369;49.586;8.646;2024-03-25T12:29:30;5.13;;;2.90;;
10641;SDS011;5369;49.586;8.646;2024-03-25T12:31:57;6.17;;;3.47;;
10641;SDS011;5369;49.586;8.646;2024-03-25T12:34:26;5.57;;;2.87;;
10641;SDS011;5369;49.586;8.646;2024-03-25T12:37:00;3.63;;;2.50;;
10641;SDS011;5369;49.586;8.646;2024-03-25T12:39:26;5.07;;;3.23;;
10641;SDS011;5369;49.586;8.646;2024-03-25T12:41:53;4.30;;;2.90;;
10641;SDS011;5369;49.586;8.646;2024-03-25T12:44:19;7.43;;;3.20;;
10641;SDS011;5369;49.586;8.646;2024-03-25T12:46:46;4.80;;;3.20;;
10641;SDS011;5369;49.586;8.646;2024-03-25T12:49:12;4.00;;;2.67;;
10641;SDS011;5369;49.586;8.646;2024-03-25T12:51:38;5.30;;;3.37;;
10641;SDS011;5369;49.586;8.646;2024-03-25T12:54:04;4.23;;;2.60;;
10641;SDS011;5369;49.586;8.646;2024-03-25T12:56:30;5.13;;;2.80;;
10641;SDS011;5369;49.586;8.646;2024-03-25T12:58:56;5.20;;;2.77;;
10641;SDS011;5369;49.586;8.646;2024-03-25T13:01:22;4.80;;;2.43;;
10641;SDS011;5369;49.586;8.646;2024-03-25T13:03:49;5.37;;;3.27;;
10641;SDS011;5369;49.586;8.646;2024-03-25T13:06:15;5.43;;;3.00;;
10641;SDS011;5369;49.586;8.646;2024-03-25T13:08:41;4.90;;;2.80;;
10641;SDS011;5369;49.586;8.646;2024-03-25T13:11:07;4.37;;;2.63;;
10641;SDS011;5369;49.586;8.646;2024-03-25T13:13:33;6.03;;;2.80;;
10641;SDS011;5369;49.586;8.646;2024-03-25T13:16:00;4.20;;;2.40;;
10641;SDS011;5369;49.586;8.646;2024-03-25T13:18:26;4.27;;;3.20;;
10641;SDS011;5369;49.586;8.646;2024-03-25T13:20:52;4.03;;;2.90;;
10641;SDS011;5369;49.586;8.646;2024-03-25T13:23:18;4.20;;;3.00;;
10641;SDS011;5369;49.586;8.646;2024-03-25T13:25:44;4.40;;;2.57;;
10641;SDS011;5369;49.586;8.646;2024-03-25T13:28:10;5.97;;;3.50;;
10641;SDS011;5369;49.586;8.646;2024-03-25T13:30:37;5.93;;;3.60;;
10641;SDS011;5369;49.586;8.646;2024-03-25T13:33:03;5.27;;;2.70;;
10641;SDS011;5369;49.586;8.646;2024-03-25T13:35:29;4.83;;;2.50;;
10641;SDS011;5369;49.586;8.646;2024-03-25T13:37:55;6.67;;;2.90;;
10641;SDS011;5369;49.586;8.646;2024-03-25T13:40:21;4.20;;;2.60;;
10641;SDS011;5369;49.586;8.646;2024-03-25T13:42:47;6.43;;;2.63;;
10641;SDS011;5369;49.586;8.646;2024-03-25T13:45:14;5.23;;;2.40;;
10641;SDS011;5369;49.586;8.646;2024-03-25T13:47:40;5.67;;;3.00;;
10641;SDS011;5369;49.586;8.646;2024-03-25T13:50:06;3.97;;;2.57;;
10641;SDS011;5369;49.586;8.646;2024-03-25T13:52:33;3.43;;;2.07;;
10641;SDS011;5369;49.586;8.646;2024-03-25T13:54:59;3.27;;;2.37;;
10641;SDS011;5369;49.586;8.646;2024-03-25T13:57:25;3.47;;;2.20;;
10641;SDS011;5369;49.586;8.646;2024-03-25T13:59:52;3.27;;;2.07;;
10641;SDS011;5369;49.586;8.646;2024-03-25T14:02:18;5.73;;;2.30;;
10641;SDS011;5369;49.586;8.646;2024-03-25T14:04:44;2.93;;;2.00;;
10641;SDS011;5369;49.586;8.646;2024-03-25T14:07:11;4.03;;;2.30;;
10641;SDS011;5369;49.586;8.646;2024-03-25T14:09:37;4.63;;;2.80;;
10641;SDS011;5369;49.586;8.646;2024-03-25T14:12:03;3.37;;;2.57;;
10641;SDS011;5369;49.586;8.646;2024-03-25T14:14:29;5.43;;;2.43;;
10641;SDS011;5369;49.586;8.646;2024-03-25T14:16:56;2.70;;;2.20;;
10641;SDS011;5369;49.586;8.646;2024-03-25T14:19:22;4.50;;;2.77;;
10641;SDS011;5369;49.586;8.646;2024-03-25T14:21:49;3.43;;;2.20;;
10641;SDS011;5369;49.586;8.646;2024-03-25T14:24:15;2.93;;;2.30;;
10641;SDS011;5369;49.586;8.646;2024-03-25T14:26:42;3.57;;;2.20;;
10641;SDS011;5369;49.586;8.646;2024-03-25T14:29:08;2.87;;;2.20;;
10641;SDS011;5369;49.586;8.646;2024-03-25T14:31:34;4.53;;;2.40;;
10641;SDS011;5369;49.586;8.646;2024-03-25T14:34:00;4.00;;;2.40;;
10641;SDS011;5369;49.586;8.646;2024-03-25T14:36:26;5.43;;;2.30;;
10641;SDS011;5369;49.586;8.646;2024-03-25T14:38:52;4.00;;;2.83;;
10641;SDS011;5369;49.586;8.646;2024-03-25T14:41:19;5.10;;;2.50;;
10641;SDS011;5369;49.586;8.646;2024-03-25T14:43:45;4.47;;;2.70;;
10641;SDS011;5369;49.586;8.646;2024-03-25T14:46:13;3.60;;;2.77;;
10641;SDS011;5369;49.586;8.646;2024-03-25T14:48:40;3.87;;;2.30;;
10641;SDS011;5369;49.586;8.646;2024-03-25T14:51:06;3.60;;;2.23;;
10641;SDS011;5369;49.586;8.646;2024-03-25T14:53:32;4.83;;;2.83;;
10641;SDS011;5369;49.586;8.646;2024-03-25T14:55:58;4.77;;;2.50;;
10641;SDS011;5369;49.586;8.646;2024-03-25T14:58:24;4.07;;;2.50;;